Golva, ND (58632)

10:32 PM MST on January 18, 2018 (GMT -0700)
Beach | | Change Station
Active Advisory: Winter Weather Advisory

Elev 2756 ft 46.93 °N, 103.98 °W | Updated -150 second ago

Partly Cloudy
Partly Cloudy
37 °F
Feels Like 32 °F
N
7
Wind Variable Wind from SW

Today
High -- | Low -- °F
--% Chance of Precip.
Yesterday
High -- | Low -- °F
Precip. -- in
Pressure 29.65 in
Visibility 10.0 miles
Clouds Clear
Windchill 32 °F
Dew Point 27 °F
Humidity 65%
Rainfall 0.00 in
Snow Depth Not available.
7:34 AM 4:39 PM
Waxing Crescent, 4% visible
METAR K20U 190535Z AUTO 23006KT 10SM CLR 03/M03 A2965 RMK AO2
Pressure 29.65 in
Visibility 10.0 miles
Clouds Clear
Windchill 32 °F
Dew Point 27 °F
Humidity 65%
Rainfall 0.00 in
Snow Depth Not available.
7:34 AM 4:39 PM
Waxing Crescent, 4% visible
METAR K20U 190535Z AUTO 23006KT 10SM CLR 03/M03 A2965 RMK AO2

Get Your Daily Forecast Email!

Thanks for signing up!

Be on the lookout for a verification email in your inbox.

You'll start receiving severe weather alerts in your inbox..

×

10-Day Weather Forecast

Almanac

Astronomy

Jan. 18, 2018 Rise Set
Actual Time
Civil Twilight
Nautical Twilight
Astronomical Twilight
Moon
Length of Visible Light
Length of Day
Tomorrow will be .
, % of the Moon is Illuminated

Today's Extremes

State Highs State Lows

Community

WunderPhotos

Category 6

Welcome to Category 6. This is the collective home for Weather Underground's featured writeups by Dr. Jeff Masters (right), Bob Henson (left), Chris Burt, and other regular contributors.

Nearby

Air Quality

  Air Quality AQ Index Pollutant
Not available.

Snow Depth

Station Depth Elevation

Earthquake Activity

City Distance Mag. Time & Date
Minimum magnitude displayed is 2.5.

Coastal Water Temperatures

Place Temperature

Stations

Nearby Weather Stations

Station Location Temp. Windchill Dew Point Humidity Wind Precip. Elev Updated Type
                   

Watches & Warnings

Winter Weather Advisory
Issued: 5:34 PM MST Jan. 18, 2018 – National Weather Service

... Winter Weather Advisory remains in effect from midnight CST
/11 PM MST/ tonight to 9 am CST /8 am MST/ Friday...

* what... freezing rain expected. The ice will result in
difficult travel conditions, including during the morning
commute on Friday. Total ice accumulations of up to one tenth
of an inch are expected.

* Where... much of northwest and west-central North Dakota.

* When... midnight tonight to 9 am Friday.

Precautionary/preparedness actions...

A Winter Weather Advisory means that periods of freezing rain
will cause travel difficulties. Be prepared for slippery roads.
Slow down and use caution while driving. The latest Road
conditions for the state you are calling from can be obtained by
calling 5 1 1.